Pine Lake, Georgia
Current Conditions -  °F | °C
As of 3:53 PM on Thursday 20 Nov 2014 (Local Time) from KPDK Reporting Station
Clear Clear  
Wind Chill: 60°   Ceiling: Unl
Heat Index: 60°   Visibility: 10mi
Dew Point: 28°   Wind: 10mph
Humidity: 30%   Direction: 310°NW
Pressure: 30.15"   Gusts: NA
Location:  33.79°N, 84.21°W
Report Text: KPDK 202053Z 31009KT 10SM CLR 16/M02 A3015 RMK AO2 SLP216 T01561022 56010
Loading
Personal Weather Stations






























Interactive Weather Map New forecast layout! Learn more

10-Day Weather Forecast

Advertisements
Track Severe Weather on mobile